logo
Search for airport 
image banner adimage banner adimage banner ad
image banner ad

FAAS - Ashton

Located in Ashton, South Africa

ICAO - FAAS, IATA -

Data provided by Airmate  

General information

Coordinates: S33°50'17" E20°2'57"
Elevation is 561 feet MSL.
 
Rated:
View ratings:
[VIEW]
View others Airports in Western Cape

Operational data

Special qualification required
Current time UTC:
Current local time:
Weather at : - ( 0 km )
METAR: KSMN 290847Z AUTO 09005KT 10SM VCTS -RA FEW065 BKN080 OVC095 12/10 A2998 RMK AO2 LTG DSNT S TSB16E34B41RAB17 P0001
View NOTAMs / SUP AIP / TFR affecting this airport [VIEW]
Communications frequencies: [VIEW]

Runways:

RWY identifierQFULength (ft)Width (ft)SurfaceLDA (ft)
1180°241133ASPH
29260°241133ASPH

Airport contact information

Address: Ashton South Africa

Satellite view of FAAS